Time;durP1;ratioP1;P1;durP2;ratioP2;P2;SDS_P1;SDS_P2;PMS_P1;PMS_P2;Temp;Humidity;BMP_temperature;BMP_pressure;BME280_temperature;BME280_humidity;BME280_pressure;Samples;Min_cycle;Max_cycle;Signal;HPM_P1;HPM_P2
2021/10/18 00:00:15;;;;;;;13.65;9.10;;;;;;;16.76;48.86;95984.00;5064899;28;20037;-72
2021/10/18 00:02:41;;;;;;;12.75;8.88;;;;;;;16.77;48.99;95985.66;5064159;28;20077;-73
2021/10/18 00:05:07;;;;;;;11.15;8.73;;;;;;;16.77;49.11;95980.25;5068024;28;20044;-72
2021/10/18 00:07:32;;;;;;;12.35;8.98;;;;;;;16.77;49.02;95980.25;5067596;28;20032;-72
2021/10/18 00:09:58;;;;;;;14.50;9.70;;;;;;;16.77;49.02;95981.09;5069242;28;20461;-72
2021/10/18 00:12:23;;;;;;;11.95;8.32;;;;;;;16.78;49.03;95968.41;5069415;28;20441;-72
2021/10/18 00:14:49;;;;;;;13.98;9.27;;;;;;;16.77;49.21;95972.13;5067407;28;20036;-72
2021/10/18 00:17:14;;;;;;;12.10;8.90;;;;;;;16.77;49.12;95974.84;5069454;28;20039;-72
2021/10/18 00:19:40;;;;;;;15.05;9.52;;;;;;;16.78;48.96;95977.34;5084085;28;20032;-72
2021/10/18 00:22:05;;;;;;;12.73;9.07;;;;;;;16.77;48.92;95980.25;5068322;28;20023;-72
2021/10/18 00:24:30;;;;;;;14.15;9.63;;;;;;;16.76;48.91;95970.47;5083975;28;20051;-72
2021/10/18 00:26:56;;;;;;;14.00;9.48;;;;;;;16.77;49.12;95977.53;5067930;28;20028;-73
2021/10/18 00:29:21;;;;;;;12.32;8.63;;;;;;;16.76;48.83;95975.88;5067605;28;20025;-73
2021/10/18 00:31:47;;;;;;;11.52;8.23;;;;;;;16.76;49.12;95956.94;5050574;28;20150;-72
2021/10/18 00:34:12;;;;;;;13.38;9.52;;;;;;;16.77;49.04;95972.13;5067879;28;20471;-72
2021/10/18 00:36:37;;;;;;;14.40;9.82;;;;;;;16.76;49.03;95968.59;5068248;28;20028;-72
2021/10/18 00:39:03;;;;;;;12.60;8.90;;;;;;;16.76;48.86;95968.59;5067947;28;20035;-73
2021/10/18 00:41:28;;;;;;;13.68;9.13;;;;;;;16.75;48.98;95963.38;5066998;28;20029;-72
2021/10/18 00:43:56;;;;;;;13.35;8.60;;;;;;;16.75;49.07;95966.09;5067424;28;20542;-72
2021/10/18 00:46:22;;;;;;;12.20;8.77;;;;;;;16.75;48.97;95966.91;5067014;28;20398;-73
2021/10/18 00:48:49;;;;;;;12.90;9.63;;;;;;;16.74;49.02;95964.41;5067239;28;20546;-73
2021/10/18 00:51:15;;;;;;;13.43;9.25;;;;;;;16.76;48.98;95973.19;5067333;28;20032;-72
2021/10/18 00:53:40;;;;;;;13.15;9.52;;;;;;;16.75;49.07;95966.91;5066704;28;20430;-72
2021/10/18 00:56:06;;;;;;;11.80;9.00;;;;;;;16.78;49.13;95965.69;5067491;28;20028;-72
2021/10/18 00:58:31;;;;;;;12.82;9.27;;;;;;;16.77;48.99;95964.00;5068048;28;20403;-73
2021/10/18 01:00:57;;;;;;;15.10;10.32;;;;;;;16.76;48.99;95968.59;5067374;28;20487;-73
2021/10/18 01:03:22;;;;;;;13.50;9.35;;;;;;;16.75;48.78;95963.38;5050099;28;20400;-72
2021/10/18 01:05:48;;;;;;;12.57;9.43;;;;;;;16.75;49.10;95958.78;5083819;28;20017;-72
2021/10/18 01:08:14;;;;;;;14.10;9.40;;;;;;;16.77;49.10;95969.41;5050159;28;20040;-72
2021/10/18 01:10:40;;;;;;;14.98;9.23;;;;;;;16.76;49.16;95965.91;5066932;28;20048;-72
2021/10/18 01:13:05;;;;;;;14.27;9.65;;;;;;;16.75;49.10;95960.69;5083900;28;20054;-72
2021/10/18 01:15:31;;;;;;;14.10;9.68;;;;;;;16.76;49.17;95963.19;5065984;28;20036;-73
2021/10/18 01:17:56;;;;;;;13.52;9.10;;;;;;;16.76;48.99;95959.63;5067049;28;20024;-72
2021/10/18 01:20:35;;;;;;;14.35;9.70;;;;;;;16.76;49.06;95955.06;5067669;28;20025;-72
2021/10/18 01:23:01;;;;;;;13.52;9.45;;;;;;;16.75;48.99;95961.50;5068079;28;20024;-72
2021/10/18 01:25:26;;;;;;;15.80;10.15;;;;;;;16.75;48.86;95956.06;5066227;28;20056;-72
2021/10/18 01:27:52;;;;;;;15.98;10.70;;;;;;;16.75;49.11;95956.06;5066489;28;20032;-72
2021/10/18 01:30:17;;;;;;;14.57;9.50;;;;;;;16.75;49.26;95956.06;5050069;28;20086;-72
2021/10/18 01:32:43;;;;;;;15.60;9.73;;;;;;;16.76;49.20;95954.22;5066532;28;20419;-72
2021/10/18 01:35:09;;;;;;;14.02;9.57;;;;;;;16.75;49.18;95958.78;5066352;28;20406;-74
2021/10/18 01:37:34;;;;;;;14.90;9.77;;;;;;;16.75;49.07;95953.38;5065972;28;20025;-71
2021/10/18 01:39:59;;;;;;;14.75;9.95;;;;;;;16.77;49.31;95955.88;5066328;28;20048;-72
2021/10/18 01:42:25;;;;;;;14.20;9.57;;;;;;;16.76;49.18;95956.94;5065940;28;20471;-72
2021/10/18 01:44:51;;;;;;;12.52;9.27;;;;;;;16.77;49.27;95955.88;5066240;28;20552;-74
2021/10/18 01:47:16;;;;;;;13.70;9.77;;;;;;;16.76;49.20;95946.94;5066066;28;20040;-72
2021/10/18 01:49:41;;;;;;;13.32;9.52;;;;;;;16.76;49.11;95955.06;5067239;28;20384;-72
2021/10/18 01:52:07;;;;;;;12.88;9.40;;;;;;;16.77;49.05;95953.16;5083055;28;20461;-72
2021/10/18 01:54:32;;;;;;;14.15;9.70;;;;;;;16.75;49.22;95956.06;5065668;28;20453;-72
2021/10/18 01:56:58;;;;;;;13.02;9.85;;;;;;;16.76;49.20;95957.78;5082922;28;20384;-72
2021/10/18 01:59:23;;;;;;;15.52;10.20;;;;;;;16.76;49.16;95957.78;5082596;28;20048;-72
2021/10/18 02:01:49;;;;;;;13.38;9.25;;;;;;;16.77;49.23;95958.59;5066158;28;20450;-72
2021/10/18 02:04:14;;;;;;;13.75;9.65;;;;;;;16.75;49.42;95956.06;5065239;28;20445;-74
2021/10/18 02:06:39;;;;;;;14.07;10.07;;;;;;;16.77;49.03;95955.88;5065579;28;20035;-72
2021/10/18 02:09:05;;;;;;;14.32;9.93;;;;;;;16.76;49.14;95955.06;5066996;28;20024;-72
2021/10/18 02:11:30;;;;;;;12.38;9.13;;;;;;;16.76;49.24;95957.78;5065417;28;20322;-71
2021/10/18 02:13:56;;;;;;;15.20;9.77;;;;;;;16.77;49.18;95958.59;5067432;28;20021;-72
2021/10/18 02:16:21;;;;;;;15.95;9.50;;;;;;;16.77;49.30;95961.28;5064979;28;20043;-72
2021/10/18 02:18:47;;;;;;;13.48;9.55;;;;;;;16.76;49.16;95956.94;5066106;28;20406;-72
2021/10/18 02:21:12;;;;;;;14.07;9.80;;;;;;;16.76;49.16;95957.78;5081725;28;20405;-73
2021/10/18 02:23:38;;;;;;;13.23;9.80;;;;;;;16.78;49.09;95960.28;5066964;28;20077;-72
2021/10/18 02:26:04;;;;;;;13.63;9.73;;;;;;;16.77;49.12;95959.44;5064250;28;20048;-72
2021/10/18 02:28:29;;;;;;;13.63;9.27;;;;;;;16.77;49.19;95962.13;5065376;28;20036;-73
2021/10/18 02:30:55;;;;;;;13.48;9.75;;;;;;;16.77;49.17;95958.59;5065569;28;20043;-72
2021/10/18 02:33:20;;;;;;;13.82;10.13;;;;;;;16.76;49.23;95963.19;5064842;28;20091;-74
2021/10/18 02:35:45;;;;;;;13.13;9.40;;;;;;;16.77;49.32;95961.28;5048924;28;20032;-72
2021/10/18 02:38:11;;;;;;;15.52;10.10;;;;;;;16.77;49.13;95958.59;5064485;28;20017;-74
2021/10/18 02:40:36;;;;;;;12.43;8.95;;;;;;;16.77;49.17;95961.28;5048956;28;20044;-71
2021/10/18 02:43:02;;;;;;;15.57;10.15;;;;;;;16.75;49.34;95956.06;5064892;28;20035;-73
2021/10/18 02:45:27;;;;;;;14.43;9.07;;;;;;;16.76;49.38;95963.19;5064772;28;20116;-73
2021/10/18 02:47:53;;;;;;;13.85;9.55;;;;;;;16.76;49.10;95965.03;5081914;28;20025;-74
2021/10/18 02:50:18;;;;;;;13.60;9.43;;;;;;;16.76;49.26;95968.59;5064721;28;20020;-73
2021/10/18 02:52:43;;;;;;;12.27;8.82;;;;;;;16.76;49.35;95963.19;5065441;28;20021;-72
2021/10/18 02:55:09;;;;;;;13.93;9.20;;;;;;;16.76;49.28;95959.63;5065683;28;20032;-71
2021/10/18 02:57:34;;;;;;;12.63;8.63;;;;;;;16.76;49.25;95965.91;5065357;28;20499;-71
2021/10/18 03:00:00;;;;;;;12.18;8.63;;;;;;;16.77;49.13;95966.72;5064694;28;20029;-74
2021/10/18 03:02:25;;;;;;;12.52;8.73;;;;;;;16.77;48.99;95964.00;5081845;28;20126;-72
2021/10/18 03:04:51;;;;;;;13.85;8.57;;;;;;;16.77;49.04;95969.41;5081555;28;20028;-71
2021/10/18 03:07:16;;;;;;;12.35;9.07;;;;;;;16.76;49.05;95968.59;5064468;28;20036;-72
2021/10/18 03:09:41;;;;;;;12.82;9.38;;;;;;;16.75;49.04;95961.50;5066457;28;20024;-72
2021/10/18 03:12:07;;;;;;;12.27;9.38;;;;;;;16.75;49.18;95961.50;5065925;28;20021;-71
2021/10/18 03:14:32;;;;;;;13.32;9.13;;;;;;;16.76;48.97;95968.59;5065172;28;20055;-72
2021/10/18 03:16:58;;;;;;;13.15;9.30;;;;;;;16.76;49.16;95968.59;5064379;28;20028;-72
2021/10/18 03:19:23;;;;;;;13.27;8.55;;;;;;;16.76;49.09;95974.03;5065010;28;20024;-72
2021/10/18 03:21:49;;;;;;;13.68;8.80;;;;;;;16.76;48.90;95967.75;5047618;28;20027;-72
2021/10/18 03:24:14;;;;;;;13.05;9.52;;;;;;;16.77;49.18;95967.56;5065088;28;20028;-74
2021/10/18 03:26:39;;;;;;;12.13;8.40;;;;;;;16.76;49.06;95968.59;5064186;28;20040;-72
2021/10/18 03:29:05;;;;;;;14.10;8.90;;;;;;;16.75;49.32;95966.91;5064556;28;20032;-72
2021/10/18 03:31:30;;;;;;;13.95;9.55;;;;;;;16.75;49.27;95966.09;5081601;28;20561;-72
2021/10/18 03:33:56;;;;;;;13.57;9.15;;;;;;;16.76;49.42;95971.31;5064234;28;20487;-72
2021/10/18 03:36:21;;;;;;;11.35;9.07;;;;;;;16.75;49.11;95977.75;5066102;28;20031;-72
2021/10/18 03:38:47;;;;;;;12.63;8.70;;;;;;;16.76;49.12;95973.19;5068092;28;20025;-72
2021/10/18 03:41:12;;;;;;;14.07;9.25;;;;;;;16.76;49.10;95974.03;5069299;28;20028;-72
2021/10/18 03:43:38;;;;;;;12.48;8.30;;;;;;;16.77;49.04;95982.97;5069373;28;20486;-72
2021/10/18 03:46:04;;;;;;;13.75;9.35;;;;;;;16.75;48.86;95977.75;5068507;28;20075;-72
2021/10/18 03:48:30;;;;;;;12.38;8.75;;;;;;;16.75;49.34;95974.22;5068304;28;20028;-72
2021/10/18 03:50:56;;;;;;;10.88;8.07;;;;;;;16.76;49.27;95984.00;5069502;28;20056;-73
2021/10/18 03:53:22;;;;;;;11.32;8.65;;;;;;;16.76;49.19;95984.00;5085880;28;20028;-72
2021/10/18 03:55:47;;;;;;;12.75;9.15;;;;;;;16.76;49.29;95978.59;5067358;28;20032;-72
2021/10/18 03:58:13;;;;;;;12.57;8.52;;;;;;;16.76;49.16;95984.00;5070123;28;20036;-72
2021/10/18 04:00:38;;;;;;;11.57;8.55;;;;;;;16.76;49.23;95986.72;5067712;28;20024;-72
2021/10/18 04:03:03;;;;;;;12.45;8.98;;;;;;;16.75;49.05;95979.63;5068367;28;20025;-72
2021/10/18 04:05:29;;;;;;;12.25;8.43;;;;;;;16.77;49.30;95982.97;5068941;28;20529;-72
2021/10/18 04:07:54;;;;;;;14.40;8.20;;;;;;;16.75;49.18;95988.59;5051288;28;20491;-73
2021/10/18 04:10:20;;;;;;;12.25;8.70;;;;;;;16.76;49.18;95989.44;5085067;28;20093;-72
2021/10/18 04:12:46;;;;;;;10.68;8.25;;;;;;;16.76;49.41;95978.59;5067489;28;20028;-73
2021/10/18 04:15:11;;;;;;;15.65;9.07;;;;;;;16.76;49.24;95987.56;5068300;28;20017;-73
2021/10/18 04:17:37;;;;;;;12.95;9.40;;;;;;;16.76;49.25;95984.00;5067268;28;20024;-72
2021/10/18 04:20:04;;;;;;;11.85;8.55;;;;;;;16.76;49.19;95987.56;5068463;28;20120;-72
2021/10/18 04:22:29;;;;;;;13.32;8.85;;;;;;;16.76;49.16;95984.84;5050709;28;20035;-72
2021/10/18 04:24:55;;;;;;;11.70;8.80;;;;;;;16.76;49.09;95990.28;5067421;28;20044;-73
2021/10/18 04:27:20;;;;;;;14.13;9.18;;;;;;;16.77;49.00;95991.09;5067563;28;20032;-73
2021/10/18 04:29:45;;;;;;;11.75;8.25;;;;;;;16.75;49.07;95988.59;5067219;28;20021;-72
2021/10/18 04:32:11;;;;;;;11.68;8.50;;;;;;;16.76;48.79;95986.72;5069369;28;20028;-72
2021/10/18 04:34:36;;;;;;;10.50;8.10;;;;;;;16.76;49.14;95990.28;5068328;28;20017;-72
2021/10/18 04:37:02;;;;;;;12.63;8.43;;;;;;;16.75;49.14;95994.00;5051170;28;20032;-73
2021/10/18 04:39:27;;;;;;;11.18;8.30;;;;;;;16.76;48.89;95994.84;5067293;28;20021;-73
2021/10/18 04:41:53;;;;;;;12.98;8.35;;;;;;;16.76;49.13;95994.84;5067293;28;20029;-73
2021/10/18 04:44:18;;;;;;;11.05;8.23;;;;;;;16.76;49.00;95989.44;5067231;28;20410;-73
2021/10/18 04:46:44;;;;;;;12.07;8.23;;;;;;;16.75;49.17;95994.00;5067003;28;20082;-73
2021/10/18 04:49:09;;;;;;;12.95;8.70;;;;;;;16.75;48.97;95998.59;5083717;28;20055;-73
2021/10/18 04:51:35;;;;;;;12.82;8.63;;;;;;;16.75;49.10;95999.41;5083998;28;20028;-73
2021/10/18 04:54:00;;;;;;;11.40;8.73;;;;;;;16.75;48.90;96004.03;5068778;28;20062;-73
2021/10/18 04:56:26;;;;;;;14.80;8.20;;;;;;;16.75;48.94;96004.84;5066613;28;20111;-73
2021/10/18 04:58:51;;;;;;;12.25;7.72;;;;;;;16.75;48.92;96004.84;5067231;28;20028;-73
2021/10/18 05:01:16;;;;;;;10.95;7.68;;;;;;;16.75;48.82;95998.59;5066821;28;20082;-73
2021/10/18 05:03:42;;;;;;;11.00;7.90;;;;;;;16.75;48.85;96009.44;5067353;28;20036;-73
2021/10/18 05:06:07;;;;;;;11.80;8.15;;;;;;;16.75;49.00;96009.44;5066715;28;20033;-73
2021/10/18 05:08:33;;;;;;;10.98;7.90;;;;;;;16.76;48.96;96008.38;5068125;28;20025;-73
2021/10/18 05:10:58;;;;;;;12.18;8.18;;;;;;;16.76;48.96;96008.38;5083842;28;20036;-73
2021/10/18 05:13:24;;;;;;;11.82;7.32;;;;;;;16.75;48.98;96009.44;5049688;28;20115;-73
2021/10/18 05:15:52;;;;;;;11.60;7.72;;;;;;;16.75;48.82;96015.66;5067119;28;20479;-73
2021/10/18 05:18:18;;;;;;;11.63;7.53;;;;;;;16.75;48.82;96012.97;5066457;28;20441;-73
2021/10/18 05:20:43;;;;;;;10.48;7.40;;;;;;;16.75;48.92;96021.09;5083810;28;20502;-73
2021/10/18 05:23:09;;;;;;;10.38;7.28;;;;;;;16.76;48.93;96020.06;5067552;28;20025;-73
2021/10/18 05:25:34;;;;;;;12.55;7.78;;;;;;;16.75;48.88;96026.50;5083248;28;20098;-73
2021/10/18 05:27:59;;;;;;;10.10;6.97;;;;;;;16.75;48.67;96025.69;5066421;28;20496;-73
2021/10/18 05:30:25;;;;;;;11.25;7.60;;;;;;;16.75;48.82;96025.69;5049789;28;20074;-73
2021/10/18 05:32:54;;;;;;;10.13;6.43;;;;;;;16.74;48.78;96038.38;5083640;28;20028;-72
2021/10/18 05:35:20;;;;;;;9.70;6.95;;;;;;;16.76;48.93;96038.19;5049310;28;20137;-73
2021/10/18 05:37:46;;;;;;;9.70;6.82;;;;;;;16.76;48.97;96043.59;5066608;28;20490;-72
2021/10/18 05:40:12;;;;;;;10.20;7.00;;;;;;;16.76;48.78;96035.47;5048991;28;20025;-73
2021/10/18 05:42:37;;;;;;;8.80;6.47;;;;;;;16.74;48.76;96038.38;5067701;28;20017;-72
2021/10/18 05:45:03;;;;;;;8.95;6.55;;;;;;;16.77;48.61;96047.97;5066077;28;20032;-72
2021/10/18 05:47:29;;;;;;;10.43;7.00;;;;;;;16.75;48.71;96047.34;5065850;28;20027;-72
2021/10/18 05:49:54;;;;;;;10.27;6.57;;;;;;;16.76;48.83;96049.00;5066396;28;20033;-72
2021/10/18 05:52:21;;;;;;;9.48;6.35;;;;;;;16.76;48.72;96049.84;5065824;28;20020;-72
2021/10/18 05:54:47;;;;;;;8.27;6.65;;;;;;;16.76;48.85;96057.13;5066416;28;20060;-73
2021/10/18 05:57:12;;;;;;;9.30;6.43;;;;;;;16.77;48.68;96058.81;5065149;28;20427;-73
2021/10/18 05:59:38;;;;;;;9.15;6.38;;;;;;;16.77;48.58;96059.66;5065904;28;20419;-73
2021/10/18 06:02:04;;;;;;;10.20;6.80;;;;;;;16.77;48.72;96069.63;5064641;28;20016;-73
2021/10/18 06:04:30;;;;;;;9.95;6.47;;;;;;;16.77;48.72;96070.47;5049309;28;20031;-73
2021/10/18 06:06:55;;;;;;;8.77;6.05;;;;;;;16.79;48.77;96064.84;5082826;28;20043;-73
2021/10/18 06:09:21;;;;;;;8.27;6.53;;;;;;;16.79;48.73;96065.72;5048525;28;20082;-73
2021/10/18 06:11:46;;;;;;;7.63;6.13;;;;;;;16.80;48.67;96071.94;5067528;28;20024;-73
2021/10/18 06:14:12;;;;;;;8.55;6.35;;;;;;;16.81;48.62;96079.03;5048307;28;20055;-72
2021/10/18 06:16:37;;;;;;;9.00;6.00;;;;;;;16.82;48.58;96072.59;5049246;28;20024;-72
2021/10/18 06:19:03;;;;;;;7.47;5.70;;;;;;;16.82;48.55;96080.72;5065222;28;20020;-73
2021/10/18 06:21:28;;;;;;;8.15;6.05;;;;;;;16.82;48.65;96080.72;5082663;28;20020;-73
2021/10/18 06:23:54;;;;;;;10.05;6.28;;;;;;;16.82;48.59;96080.72;5065484;28;20047;-73
2021/10/18 06:26:19;;;;;;;8.95;6.25;;;;;;;16.82;48.75;96080.72;5064558;28;20136;-73
2021/10/18 06:28:44;;;;;;;8.23;6.07;;;;;;;16.85;48.54;96087.59;5048942;28;20033;-73
2021/10/18 06:31:10;;;;;;;9.07;6.13;;;;;;;16.84;48.64;96084.06;5064834;28;20031;-73
2021/10/18 06:33:35;;;;;;;7.55;5.95;;;;;;;16.84;48.65;96089.47;5067069;28;20028;-72
2021/10/18 06:36:01;;;;;;;6.80;5.25;;;;;;;16.85;48.57;96091.16;5064823;28;20106;-74
2021/10/18 06:38:26;;;;;;;8.40;6.45;;;;;;;16.87;48.45;96099.91;5065377;28;20024;-72
2021/10/18 06:40:52;;;;;;;9.45;5.80;;;;;;;16.84;48.45;96091.34;5064954;28;20024;-74
2021/10/18 06:43:18;;;;;;;9.38;5.93;;;;;;;16.87;48.54;96101.78;5081844;28;20024;-73
2021/10/18 06:45:44;;;;;;;8.38;5.90;;;;;;;16.88;48.47;96109.69;5048375;28;20059;-73
2021/10/18 06:48:09;;;;;;;8.02;6.25;;;;;;;16.89;48.55;96105.97;5064908;28;20315;-72
2021/10/18 06:50:38;;;;;;;8.93;5.95;;;;;;;16.90;48.33;96110.34;5065292;28;20032;-73
2021/10/18 06:53:05;;;;;;;8.73;6.18;;;;;;;16.89;48.34;96111.41;5066273;28;20533;-73
2021/10/18 06:55:31;;;;;;;7.53;5.78;;;;;;;16.91;48.60;96105.78;5048660;28;20039;-73
2021/10/18 06:57:56;;;;;;;8.73;6.13;;;;;;;16.92;48.40;96112.84;5065747;28;20033;-73
2021/10/18 07:00:21;;;;;;;8.25;6.07;;;;;;;16.93;48.36;96120.78;5064751;28;20024;-73
2021/10/18 07:02:47;;;;;;;9.35;5.97;;;;;;;16.93;48.47;96123.50;5064763;28;20032;-73
2021/10/18 07:05:12;;;;;;;8.95;6.50;;;;;;;16.92;48.57;96121.81;5064820;28;20031;-75
2021/10/18 07:07:38;;;;;;;9.95;6.57;;;;;;;16.93;48.30;96119.94;5064884;28;20079;-72
2021/10/18 07:10:05;;;;;;;8.48;5.97;;;;;;;16.94;48.31;96127.03;5047784;28;20029;-72
2021/10/18 07:12:31;;;;;;;8.68;6.20;;;;;;;16.94;48.22;96127.03;5064814;28;20024;-72
2021/10/18 07:14:57;;;;;;;9.70;6.07;;;;;;;16.96;48.23;96134.97;5064397;28;20021;-72
2021/10/18 07:17:23;;;;;;;9.88;5.82;;;;;;;16.96;48.09;96135.78;5064729;28;20048;-74
2021/10/18 07:19:51;;;;;;;8.13;5.80;;;;;;;16.97;48.43;96136.63;5081280;28;20016;-73
2021/10/18 07:22:17;;;;;;;9.52;5.72;;;;;;;16.97;48.38;96136.63;5064770;28;20063;-72
2021/10/18 07:24:43;;;;;;;8.85;5.95;;;;;;;16.97;48.55;96142.91;5064496;28;20025;-73
2021/10/18 07:27:08;;;;;;;8.35;5.55;;;;;;;16.98;48.34;96131.00;5081072;28;20448;-73
2021/10/18 07:29:34;;;;;;;8.73;5.97;;;;;;;16.97;48.43;96131.22;5064884;28;20020;-72
2021/10/18 07:31:59;;;;;;;7.65;5.72;;;;;;;16.98;48.31;96132.88;5064171;28;20025;-74
2021/10/18 07:34:25;;;;;;;9.18;6.07;;;;;;;16.99;48.35;96138.09;5064768;28;20028;-73
2021/10/18 07:36:50;;;;;;;8.70;5.65;;;;;;;16.99;48.50;96137.28;5064068;28;20039;-71
2021/10/18 07:39:20;;;;;;;7.93;5.60;;;;;;;17.01;48.48;96137.91;5081562;28;20426;-72
2021/10/18 07:41:47;;;;;;;9.02;5.50;;;;;;;17.01;48.39;96143.31;5047429;28;20064;-72
2021/10/18 07:44:12;;;;;;;8.43;5.53;;;;;;;17.01;48.42;96138.75;5064357;28;20016;-72
2021/10/18 07:46:38;;;;;;;7.65;5.95;;;;;;;17.04;48.16;96148.31;5064564;28;20510;-72
2021/10/18 07:49:03;;;;;;;9.13;6.60;;;;;;;17.04;48.41;96140.19;5064140;28;20028;-72
2021/10/18 07:51:29;;;;;;;7.68;5.75;;;;;;;17.07;48.35;96141.69;5064671;28;20027;-72
2021/10/18 07:53:54;;;;;;;8.68;5.78;;;;;;;17.06;48.45;96140.84;5064099;28;20029;-73
2021/10/18 07:56:19;;;;;;;7.43;5.63;;;;;;;17.09;48.03;96147.78;5064453;28;20032;-72
2021/10/18 07:58:45;;;;;;;7.72;5.78;;;;;;;17.09;48.26;96139.66;5063333;28;20036;-73
2021/10/18 08:01:10;;;;;;;10.57;6.22;;;;;;;17.09;48.28;96145.91;5047651;28;20028;-72
2021/10/18 08:03:36;;;;;;;8.90;6.32;;;;;;;17.10;48.25;96144.88;5063615;28;20039;-73
2021/10/18 08:06:01;;;;;;;6.85;5.22;;;;;;;17.12;48.19;96139.25;5080904;28;20023;-72
2021/10/18 08:08:42;;;;;;;7.75;5.47;;;;;;;17.14;48.16;96131.75;5064758;28;20033;-73
2021/10/18 08:11:07;;;;;;;7.40;5.47;;;;;;;17.16;48.22;96130.50;5079074;28;20078;-72
2021/10/18 08:13:33;;;;;;;7.57;5.07;;;;;;;17.18;48.20;96131.13;5065891;28;20036;-73
2021/10/18 08:15:58;;;;;;;7.85;5.43;;;;;;;17.20;47.88;96130.09;5064874;28;20029;-73
2021/10/18 08:18:23;;;;;;;7.72;5.53;;;;;;;17.24;47.71;96126.78;5047526;28;20070;-73
2021/10/18 08:20:49;;;;;;;7.80;5.20;;;;;;;17.25;47.85;96131.16;5064089;28;20021;-73
2021/10/18 08:23:14;;;;;;;9.82;5.82;;;;;;;17.26;47.92;96127.44;5064024;28;20078;-72
2021/10/18 08:25:41;;;;;;;8.02;5.57;;;;;;;17.27;48.12;96117.41;5067820;28;20016;-73
2021/10/18 08:28:07;;;;;;;7.95;5.22;;;;;;;17.29;47.68;96127.03;5067344;28;20056;-73
2021/10/18 08:30:32;;;;;;;8.35;5.60;;;;;;;17.30;48.13;96130.56;5068082;28;20059;-73
2021/10/18 08:32:57;;;;;;;9.23;5.55;;;;;;;17.31;48.09;96126.81;5068477;28;20027;-73
2021/10/18 08:35:23;;;;;;;8.07;5.70;;;;;;;17.31;48.03;96129.53;5069130;28;20036;-73
2021/10/18 08:40:35;;;;;;;7.93;5.57;;;;;;;17.29;47.87;96128.88;5082110;28;20067;-73
2021/10/18 08:43:26;;;;;;;7.20;5.28;;;;;;;17.29;47.77;96126.19;5067626;28;20025;-72
2021/10/18 08:45:46;;;;;;;7.55;5.75;;;;;;;17.27;48.02;96131.81;5066125;28;20409;-71
2021/10/18 08:48:12;;;;;;;6.80;5.15;;;;;;;17.27;48.01;96126.38;5067756;28;20035;-74
2021/10/18 08:50:37;;;;;;;7.00;5.18;;;;;;;17.28;48.02;96129.94;5067088;28;20033;-74
2021/10/18 08:53:03;;;;;;;8.05;5.68;;;;;;;17.28;48.22;96127.22;5067176;28;20040;-73
2021/10/18 08:55:28;;;;;;;7.80;5.68;;;;;;;17.27;48.19;96128.25;5068443;28;20024;-73
2021/10/18 08:57:54;;;;;;;7.53;5.45;;;;;;;17.27;48.05;96130.97;5083479;28;20028;-74
2021/10/18 09:00:38;;;;;;;8.07;6.00;;;;;;;17.28;48.11;96128.03;5084414;28;20032;-71
2021/10/18 09:03:23;;;;;;;7.53;5.40;;;;;;;17.30;48.03;96125.13;5066431;28;20040;-74
2021/10/18 09:05:49;;;;;;;7.43;5.63;;;;;;;17.29;48.05;96128.88;5083804;28;20491;-73
2021/10/18 09:08:37;;;;;;;7.75;5.20;;;;;;;17.27;48.04;96128.25;5066804;28;20078;-73
2021/10/18 09:11:10;;;;;;;7.05;5.53;;;;;;;17.29;47.95;96128.88;5066638;28;20032;-74
2021/10/18 09:13:36;;;;;;;7.32;5.90;;;;;;;17.31;48.05;96137.66;5067478;28;20036;-74
2021/10/18 09:16:02;;;;;;;7.20;5.80;;;;;;;17.30;48.01;96130.56;5049459;28;20410;-74
2021/10/18 09:18:27;;;;;;;9.25;5.63;;;;;;;17.28;47.81;96133.47;5066904;28;20502;-74
2021/10/18 09:20:52;;;;;;;8.35;5.57;;;;;;;17.32;48.01;96127.63;5066092;28;20515;-74
2021/10/18 09:23:41;;;;;;;7.32;5.55;;;;;;;17.30;47.55;96133.25;5066950;28;20514;-74
2021/10/18 09:26:13;;;;;;;9.13;5.93;;;;;;;17.29;47.96;96134.31;5066768;28;20038;-74
2021/10/18 09:28:39;;;;;;;7.85;5.53;;;;;;;17.27;47.97;96139.09;5049973;28;20032;-74
2021/10/18 09:31:04;;;;;;;7.38;5.80;;;;;;;17.27;48.05;96137.22;5050246;28;20035;-73
2021/10/18 09:35:58;;;;;;;8.25;6.00;;;;;;;17.28;48.04;96140.78;5066038;28;20055;-72
2021/10/18 09:38:24;;;;;;;7.97;6.57;;;;;;;17.28;48.10;96135.38;5066144;28;20490;-73
2021/10/18 09:40:51;;;;;;;8.45;6.15;;;;;;;17.30;47.73;96135.97;5066585;28;20496;-72
2021/10/18 10:53:39;;;;;;;8.45;6.30;;;;;;;18.03;46.61;96103.81;5080033;28;20100;-75
2021/10/18 10:56:32;;;;;;;9.35;6.45;;;;;;;17.98;46.38;96103.59;5064594;28;20089;-74
2021/10/18 10:59:06;;;;;;;7.95;5.95;;;;;;;17.97;46.51;96104.63;5081520;28;20063;-73
2021/10/18 11:01:56;;;;;;;8.35;6.00;;;;;;;17.95;46.26;96096.72;5066286;28;20117;-73
2021/10/18 11:04:31;;;;;;;8.05;6.10;;;;;;;17.95;46.65;96104.84;5052629;28;20040;-73
2021/10/18 11:06:57;;;;;;;9.30;6.80;;;;;;;17.94;46.25;96099.63;5066640;28;20033;-73
2021/10/18 11:09:36;;;;;;;8.77;6.30;;;;;;;17.99;46.40;96099.84;5047851;28;20036;-73
2021/10/18 11:12:01;;;;;;;7.40;6.13;;;;;;;18.08;46.50;96090.44;5065883;28;20477;-73
2021/10/18 11:14:26;;;;;;;8.38;5.82;;;;;;;18.20;45.71;96085.25;5064983;28;20021;-73
2021/10/18 11:16:52;;;;;;;9.32;6.72;;;;;;;18.29;45.82;96091.31;5081260;28;20078;-73
2021/10/18 11:19:19;;;;;;;7.40;5.45;;;;;;;18.45;45.37;96086.47;5065223;28;20465;-73
2021/10/18 11:21:44;;;;;;;8.18;5.70;;;;;;;18.58;45.32;96081.03;5064228;28;20494;-73
2021/10/18 11:24:11;;;;;;;8.95;5.97;;;;;;;18.63;44.87;96081.25;5064720;28;20029;-73
2021/10/18 11:26:38;;;;;;;7.63;5.65;;;;;;;18.64;44.76;96082.06;5064264;28;20033;-73
2021/10/18 11:29:09;;;;;;;8.18;6.03;;;;;;;18.63;44.63;96083.13;5064331;28;20443;-73
2021/10/18 11:31:38;;;;;;;7.65;5.82;;;;;;;18.57;45.05;96076.63;5064788;28;20058;-73
2021/10/18 11:34:11;;;;;;;8.20;5.50;;;;;;;18.64;45.13;96077.47;5064502;28;20028;-72
2021/10/18 11:36:39;;;;;;;7.43;5.25;;;;;;;18.68;44.82;96074.31;5081442;28;20032;-73
2021/10/18 11:39:21;;;;;;;8.43;5.63;;;;;;;18.73;44.75;96079.97;5064423;28;20032;-73
2021/10/18 11:41:58;;;;;;;7.28;5.50;;;;;;;18.72;44.73;96081.00;5080509;28;20078;-73
2021/10/18 11:44:48;;;;;;;8.10;5.45;;;;;;;18.64;45.03;96074.75;5066332;28;20523;-73
2021/10/18 11:47:25;;;;;;;8.48;5.57;;;;;;;18.59;45.21;96070.97;5065605;28;20573;-73
2021/10/18 11:50:19;;;;;;;7.70;5.30;;;;;;;18.55;44.97;96076.03;5065720;28;20047;-72
2021/10/18 11:52:58;;;;;;;6.35;4.95;;;;;;;18.55;45.21;96069.75;5064308;28;20033;-73
2021/10/18 11:55:35;;;;;;;6.38;4.80;;;;;;;18.49;45.47;96066.00;5064145;28;20036;-73
2021/10/18 11:58:04;;;;;;;6.35;4.70;;;;;;;18.45;45.10;96068.31;5064666;28;20021;-73
2021/10/18 12:00:43;;;;;;;7.10;5.15;;;;;;;18.41;45.39;96065.19;5068667;28;20934;-72
2021/10/18 12:03:10;;;;;;;7.70;4.82;;;;;;;18.39;45.21;96059.13;5069835;28;20029;-73
2021/10/18 12:05:42;;;;;;;6.72;5.13;;;;;;;18.38;45.70;96059.31;5067912;28;20020;-73
2021/10/18 12:08:07;;;;;;;7.25;5.32;;;;;;;18.35;45.55;96062.47;5068090;28;20029;-73
2021/10/18 12:10:33;;;;;;;6.65;4.85;;;;;;;18.32;45.58;96060.19;5068514;28;20078;-72
2021/10/18 12:13:29;;;;;;;6.70;5.05;;;;;;;18.26;45.68;96061.88;5067282;28;20024;-73
2021/10/18 12:16:03;;;;;;;6.70;4.90;;;;;;;18.20;45.69;96054.56;5069307;28;20035;-73
2021/10/18 12:18:36;;;;;;;7.05;5.00;;;;;;;18.14;45.55;96054.34;5069179;28;20035;-73
2021/10/18 12:21:27;;;;;;;7.30;4.75;;;;;;;18.09;46.16;96050.59;5067517;28;20028;-73
2021/10/18 12:23:56;;;;;;;6.68;5.03;;;;;;;18.03;46.26;96050.38;5085107;28;20086;-73
2021/10/18 12:26:29;;;;;;;8.02;4.72;;;;;;;18.00;46.11;96039.09;5067335;28;20035;-73
2021/10/18 12:29:03;;;;;;;6.20;4.60;;;;;;;17.98;45.98;96044.72;5083849;28;20036;-72
2021/10/18 12:31:51;;;;;;;8.35;4.95;;;;;;;18.01;46.19;96044.31;5067645;28;20079;-73
2021/10/18 12:34:23;;;;;;;7.40;4.90;;;;;;;18.05;46.34;96036.59;5067497;28;20033;-73
2021/10/18 12:37:10;;;;;;;7.25;4.93;;;;;;;18.12;46.15;96045.56;5069011;28;20502;-73
2021/10/18 12:39:48;;;;;;;5.82;4.75;;;;;;;18.16;46.28;96040.56;5068470;28;20059;-73
2021/10/18 12:42:19;;;;;;;6.70;4.88;;;;;;;18.23;45.78;96048.72;5067569;28;20028;-73
2021/10/18 12:44:46;;;;;;;8.02;4.82;;;;;;;18.24;46.12;96037.66;5068921;28;20039;-72